Acocks Green, United Kingdom
Current Conditions -  °F | °C
As of 2:20 AM on Monday 26 Jan 2015 (Local Time) from EGBB Reporting Station
Overcast Overcast  
Wind Chill: 43°   Ceiling: 1500
Heat Index: 46°   Visibility: 6mi
Dew Point: 45°   Wind: 7mph
Humidity: 93%   Direction: 200°SSW
Pressure: 30.15"   Gusts: NA
Location:  52.45°N, 1.82°W
Report Text: EGBB 260220Z AUTO 20006KT 9999 BKN015/// OVC020/// 08/07 Q1021
Loading
Personal Weather Stations






























Interactive Weather Map New forecast layout! Learn more

10-Day Weather Forecast

Advertisements
Track Severe Weather on mobile